createdAt,value
2018-11-12T00:00:38.643Z,1003.31
2018-11-12T00:01:19.035Z,1003.28
2018-11-12T00:01:59.300Z,1003.18
2018-11-12T00:02:39.884Z,1003.18
2018-11-12T00:03:20.167Z,1003.22
2018-11-12T00:04:00.603Z,1003.19
2018-11-12T00:04:41.076Z,1003.22
2018-11-12T00:05:21.596Z,1003.29
2018-11-12T00:06:02.024Z,1003.3
2018-11-12T00:06:42.472Z,1003.28
2018-11-12T00:07:22.721Z,1003.3
2018-11-12T00:08:03.215Z,1003.25
2018-11-12T00:08:43.692Z,1003.28
2018-11-12T00:09:24.085Z,1003.29
2018-11-12T00:10:04.522Z,1003.23
2018-11-12T00:10:44.868Z,1003.29
2018-11-12T00:11:25.320Z,1003.27
2018-11-12T00:12:05.760Z,1003.32
2018-11-12T00:12:46.153Z,1003.36
2018-11-12T00:13:26.605Z,1003.36
2018-11-12T00:14:06.968Z,1003.35
2018-11-12T00:14:47.443Z,1003.38
2018-11-12T00:16:47.939Z,1003.45
2018-11-12T00:17:28.736Z,1003.42
2018-11-12T00:18:09.178Z,1003.48
2018-11-12T00:18:49.589Z,1003.47
2018-11-12T00:19:30.029Z,1003.52
2018-11-12T00:20:10.526Z,1003.52
2018-11-12T00:20:51.015Z,1003.56
2018-11-12T00:21:31.666Z,1003.56
2018-11-12T00:22:12.023Z,1003.49
2018-11-12T00:22:52.406Z,1003.45
2018-11-12T00:23:32.794Z,1003.44
2018-11-12T00:24:13.186Z,1003.47
2018-11-12T00:24:53.580Z,1003.46
2018-11-12T00:25:33.984Z,1003.49
2018-11-12T00:26:14.420Z,1003.5
2018-11-12T00:26:54.923Z,1003.45
2018-11-12T00:27:35.367Z,1003.47
2018-11-12T00:28:18.537Z,1003.43
2018-11-12T00:28:59.010Z,1003.49
2018-11-12T00:29:39.446Z,1003.43
2018-11-12T00:30:19.860Z,1003.39
2018-11-12T00:31:00.241Z,1003.37
2018-11-12T00:31:40.664Z,1003.33
2018-11-12T00:32:21.050Z,1003.28
2018-11-12T00:33:01.476Z,1003.28
2018-11-12T00:33:41.868Z,1003.29
2018-11-12T00:34:22.438Z,1003.31
2018-11-12T00:35:02.855Z,1003.34
2018-11-12T00:35:43.389Z,1003.37
2018-11-12T00:40:55.278Z,1003.35
2018-11-12T00:41:35.450Z,1003.31
2018-11-12T00:42:15.789Z,1003.31
2018-11-12T00:42:56.290Z,1003.32
2018-11-12T00:43:36.626Z,1003.33
2018-11-12T00:44:17.089Z,1003.36
2018-11-12T00:44:57.476Z,1003.32
2018-11-12T00:45:37.889Z,1003.34
2018-11-12T00:46:18.273Z,1003.31
2018-11-12T00:46:58.649Z,1003.36
2018-11-12T00:47:38.996Z,1003.34
2018-11-12T00:48:19.400Z,1003.36
2018-11-12T00:48:59.849Z,1003.33
2018-11-12T00:49:40.225Z,1003.34
2018-11-12T00:50:20.635Z,1003.37
2018-11-12T00:51:01.059Z,1003.37
2018-11-12T00:51:41.462Z,1003.37
2018-11-12T00:52:21.959Z,1003.38
2018-11-12T00:53:02.343Z,1003.37
2018-11-12T00:53:42.722Z,1003.39
2018-11-12T00:54:23.134Z,1003.38
2018-11-12T00:55:03.518Z,1003.35
2018-11-12T00:55:43.944Z,1003.41
2018-11-12T00:56:24.332Z,1003.44
2018-11-12T00:57:04.756Z,1003.38
2018-11-12T00:57:45.199Z,1003.39
2018-11-12T00:58:25.941Z,1003.44
2018-11-12T00:59:06.001Z,1003.46
2018-11-12T00:59:46.383Z,1003.45
2018-11-12T01:00:26.755Z,1003.44
2018-11-12T01:01:07.797Z,1003.52
2018-11-12T01:01:48.126Z,1003.48
2018-11-12T01:02:28.567Z,1003.52
2018-11-12T01:03:08.996Z,1003.55
2018-11-12T01:03:50.343Z,1003.58
2018-11-12T01:04:30.774Z,1003.62
2018-11-12T01:05:11.151Z,1003.61
2018-11-12T01:05:51.982Z,1003.58
2018-11-12T01:06:32.293Z,1003.66
2018-11-12T01:07:12.701Z,1003.66
2018-11-12T01:07:53.215Z,1003.64
2018-11-12T01:14:35.230Z,1003.69
2018-11-12T01:15:16.328Z,1003.63
2018-11-12T01:15:56.151Z,1003.68
2018-11-12T01:16:36.583Z,1003.66
2018-11-12T01:17:16.945Z,1003.69
2018-11-12T01:17:57.402Z,1003.67
2018-11-12T01:18:37.811Z,1003.63
2018-11-12T01:19:18.237Z,1003.62
2018-11-12T01:19:58.577Z,1003.6
2018-11-12T01:20:39.179Z,1003.6
2018-11-12T01:21:19.555Z,1003.57
2018-11-12T01:21:59.920Z,1003.55
2018-11-12T01:22:40.326Z,1003.56
2018-11-12T01:23:20.757Z,1003.53
2018-11-12T01:24:01.314Z,1003.5
2018-11-12T01:24:41.905Z,1003.46
2018-11-12T01:25:22.110Z,1003.5
2018-11-12T01:26:02.677Z,1003.47
2018-11-12T01:26:43.042Z,1003.49
2018-11-12T01:27:23.496Z,1003.49
2018-11-12T01:28:04.054Z,1003.49
2018-11-12T01:28:44.538Z,1003.48
2018-11-12T01:29:24.815Z,1003.5
2018-11-12T01:30:05.104Z,1003.47
2018-11-12T01:30:45.571Z,1003.48
2018-11-12T01:31:26.063Z,1003.45
2018-11-12T01:32:06.472Z,1003.51
2018-11-12T01:32:47.018Z,1003.55
2018-11-12T01:33:27.461Z,1003.62
2018-11-12T01:34:07.844Z,1003.66
2018-11-12T01:34:48.203Z,1003.71
2018-11-12T01:35:28.581Z,1003.73
2018-11-12T01:36:09.030Z,1003.77
2018-11-12T01:36:49.396Z,1003.72
2018-11-12T01:37:29.808Z,1003.7
2018-11-12T01:38:10.195Z,1003.71
2018-11-12T01:38:50.592Z,1003.66
2018-11-12T01:39:31.065Z,1003.62
2018-11-12T01:40:11.510Z,1003.59
2018-11-12T01:40:51.881Z,1003.6
2018-11-12T01:41:32.284Z,1003.53
2018-11-12T01:42:12.902Z,1003.56
2018-11-12T01:42:53.078Z,1003.52
2018-11-12T01:43:33.463Z,1003.52
2018-11-12T01:44:13.936Z,1003.56
2018-11-12T01:44:54.365Z,1003.48
2018-11-12T01:45:34.814Z,1003.48
2018-11-12T01:46:15.168Z,1003.42
2018-11-12T01:46:55.748Z,1003.39
2018-11-12T01:47:36.142Z,1003.36
2018-11-12T01:48:16.451Z,1003.43
2018-11-12T01:48:56.870Z,1003.47
2018-11-12T01:49:37.249Z,1003.49
2018-11-12T01:50:17.706Z,1003.5
2018-11-12T01:50:58.046Z,1003.54
2018-11-12T01:51:38.635Z,1003.61
2018-11-12T01:52:19.005Z,1003.63
2018-11-12T01:52:59.335Z,1003.63
2018-11-12T01:53:39.990Z,1003.66
2018-11-12T01:54:20.441Z,1003.68
2018-11-12T01:55:00.861Z,1003.66
2018-11-12T01:55:41.232Z,1003.67
2018-11-12T01:56:21.601Z,1003.7
2018-11-12T01:57:02.088Z,1003.67
2018-11-12T01:57:42.473Z,1003.7
2018-11-12T01:58:22.946Z,1003.63
2018-11-12T01:59:03.619Z,1003.63
2018-11-12T01:59:44.429Z,1003.61
2018-11-12T02:00:25.075Z,1003.56
2018-11-12T02:01:05.447Z,1003.57
2018-11-12T02:01:46.005Z,1003.48
2018-11-12T02:02:26.279Z,1003.48
2018-11-12T02:03:06.680Z,1003.42
2018-11-12T02:03:47.112Z,1003.43
2018-11-12T02:04:27.618Z,1003.41
2018-11-12T02:05:08.363Z,1003.43
2018-11-12T02:05:48.581Z,1003.45
2018-11-12T02:06:29.070Z,1003.46
2018-11-12T02:07:09.495Z,1003.5
2018-11-12T02:07:49.849Z,1003.48
2018-11-12T02:08:30.290Z,1003.52
2018-11-12T02:09:10.836Z,1003.55
2018-11-12T02:09:51.159Z,1003.58
2018-11-12T02:10:31.701Z,1003.61
2018-11-12T02:11:12.233Z,1003.65
2018-11-12T02:11:52.722Z,1003.61
2018-11-12T02:12:33.066Z,1003.66
2018-11-12T02:13:13.599Z,1003.69
2018-11-12T02:13:54.160Z,1003.71
2018-11-12T02:14:34.559Z,1003.67
2018-11-12T02:15:14.920Z,1003.66
2018-11-12T02:15:55.312Z,1003.68
2018-11-12T02:16:35.765Z,1003.64
2018-11-12T02:17:16.124Z,1003.62
2018-11-12T02:17:56.514Z,1003.62
2018-11-12T02:18:37.019Z,1003.67
2018-11-12T02:19:17.486Z,1003.63
2018-11-12T02:19:57.972Z,1003.65
2018-11-12T02:20:38.485Z,1003.57
2018-11-12T02:21:19.151Z,1003.57
2018-11-12T02:21:59.560Z,1003.51
2018-11-12T02:22:39.861Z,1003.46
2018-11-12T02:23:20.409Z,1003.42
2018-11-12T02:24:00.967Z,1003.43
2018-11-12T02:24:41.285Z,1003.42
2018-11-12T02:25:21.640Z,1003.47
2018-11-12T02:26:02.033Z,1003.5
2018-11-12T02:26:42.400Z,1003.5
2018-11-12T02:27:22.879Z,1003.48
2018-11-12T02:28:03.215Z,1003.45
2018-11-12T02:28:43.655Z,1003.44
2018-11-12T02:32:20.887Z,1003.41
2018-11-12T02:33:00.633Z,1003.41
2018-11-12T02:33:41.021Z,1003.35
2018-11-12T02:34:21.331Z,1003.35
2018-11-12T02:35:01.907Z,1003.4
2018-11-12T02:35:42.358Z,1003.28
2018-11-12T02:36:22.804Z,1003.29
2018-11-12T02:37:03.190Z,1003.35
2018-11-12T02:37:43.801Z,1003.29
2018-11-12T02:38:24.212Z,1003.24
2018-11-12T02:39:04.519Z,1003.29
2018-11-12T02:39:44.897Z,1003.41
2018-11-12T02:40:25.321Z,1003.39
2018-11-12T02:41:05.791Z,1003.41
2018-11-12T02:41:46.226Z,1003.5
2018-11-12T02:42:26.628Z,1003.53
2018-11-12T02:43:07.028Z,1003.54
2018-11-12T02:43:47.372Z,1003.53
2018-11-12T02:44:27.785Z,1003.56
2018-11-12T02:45:08.196Z,1003.53
2018-11-12T02:45:48.760Z,1003.58
2018-11-12T02:46:29.033Z,1003.56
2018-11-12T02:47:09.444Z,1003.56
2018-11-12T02:47:49.853Z,1003.57
2018-11-12T02:48:30.285Z,1003.6
2018-11-12T02:49:10.734Z,1003.63
2018-11-12T02:49:51.223Z,1003.64
2018-11-12T02:50:31.630Z,1003.62
2018-11-12T02:51:12.051Z,1003.66
2018-11-12T02:51:52.420Z,1003.59
2018-11-12T02:52:32.823Z,1003.61
2018-11-12T02:53:13.251Z,1003.59
2018-11-12T02:53:53.660Z,1003.62
2018-11-12T02:54:34.024Z,1003.57
2018-11-12T02:55:14.624Z,1003.54
2018-11-12T02:55:54.973Z,1003.56
2018-11-12T02:56:35.444Z,1003.57
2018-11-12T02:57:15.989Z,1003.52
2018-11-12T02:57:56.369Z,1003.53
2018-11-12T02:58:36.840Z,1003.56
2018-11-12T02:59:17.239Z,1003.5
2018-11-12T02:59:57.555Z,1003.54
2018-11-12T03:00:38.052Z,1003.59
2018-11-12T03:01:18.503Z,1003.57
2018-11-12T03:01:58.795Z,1003.6
2018-11-12T03:02:39.189Z,1003.62
2018-11-12T03:03:19.583Z,1003.66
2018-11-12T03:03:59.995Z,1003.61
2018-11-12T03:04:40.457Z,1003.61
2018-11-12T03:05:20.797Z,1003.64
2018-11-12T03:06:01.200Z,1003.65
2018-11-12T03:06:41.598Z,1003.65
2018-11-12T03:07:22.079Z,1003.64
2018-11-12T03:08:02.400Z,1003.62
2018-11-12T03:08:42.790Z,1003.61
2018-11-12T03:09:23.209Z,1003.58
2018-11-12T03:10:03.630Z,1003.6
2018-11-12T03:10:44.064Z,1003.6
2018-11-12T03:11:24.445Z,1003.65
2018-11-12T03:12:04.866Z,1003.53
2018-11-12T03:12:45.295Z,1003.54
2018-11-12T03:13:25.746Z,1003.49
2018-11-12T03:14:06.120Z,1003.49
2018-11-12T03:14:46.635Z,1003.56
2018-11-12T03:15:27.040Z,1003.48
2018-11-12T03:17:28.544Z,1003.47
2018-11-12T03:18:09.590Z,1003.47
2018-11-12T03:18:50.029Z,1003.44
2018-11-12T03:19:30.381Z,1003.44
2018-11-12T03:20:10.773Z,1003.37
2018-11-12T03:20:51.227Z,1003.35
2018-11-12T03:21:31.649Z,1003.31
2018-11-12T03:22:12.015Z,1003.3
2018-11-12T03:22:52.415Z,1003.26
2018-11-12T03:23:32.818Z,1003.18
2018-11-12T03:24:13.235Z,1003.14
2018-11-12T03:24:53.635Z,1003.12
2018-11-12T03:25:34.152Z,1003.1
2018-11-12T03:26:14.429Z,1003.16
2018-11-12T03:26:54.840Z,1003.12
2018-11-12T03:27:35.284Z,1003.11
2018-11-12T03:28:15.667Z,1003.12
2018-11-12T03:28:56.055Z,1003.17
2018-11-12T03:29:36.482Z,1003.23
2018-11-12T03:30:16.964Z,1003.24
2018-11-12T03:30:57.330Z,1003.25
2018-11-12T03:31:37.751Z,1003.28
2018-11-12T03:32:18.211Z,1003.31
2018-11-12T03:32:58.593Z,1003.33
2018-11-12T03:44:53.288Z,1003.31
2018-11-12T03:45:34.334Z,1003.3
2018-11-12T03:46:14.739Z,1003.26
2018-11-12T03:46:55.183Z,1003.2
2018-11-12T03:47:35.531Z,1003.18
2018-11-12T03:48:15.975Z,1003.19
2018-11-12T03:48:56.388Z,1003.19
2018-11-12T03:51:24.678Z,1003.2
2018-11-12T03:52:04.922Z,1003.21
2018-11-12T03:52:45.390Z,1003.22
2018-11-12T03:53:25.756Z,1003.2
2018-11-12T03:54:06.187Z,1003.23
2018-11-12T03:54:46.530Z,1003.24
2018-11-12T03:55:26.978Z,1003.27
2018-11-12T03:56:07.380Z,1003.32
2018-11-12T03:56:47.752Z,1003.34
2018-11-12T03:58:40.201Z,1003.44
2018-11-12T03:59:20.721Z,1003.48
2018-11-12T04:00:01.138Z,1003.5
2018-11-12T04:00:41.539Z,1003.49
2018-11-12T04:01:21.934Z,1003.46
2018-11-12T04:02:02.296Z,1003.41
2018-11-12T04:02:42.673Z,1003.36
2018-11-12T04:03:23.062Z,1003.3
2018-11-12T04:04:03.482Z,1003.08
2018-11-12T04:04:43.915Z,1003.03
2018-11-12T04:05:24.324Z,1002.96
2018-11-12T04:06:04.770Z,1003.03
2018-11-12T04:06:45.126Z,1003.04
2018-11-12T04:07:25.526Z,1003.16
2018-11-12T04:08:05.896Z,1003.23
2018-11-12T04:08:46.334Z,1003.28
2018-11-12T04:09:26.718Z,1003.35
2018-11-12T04:10:07.130Z,1003.28
2018-11-12T04:10:47.526Z,1003.31
2018-11-12T04:11:27.952Z,1003.3
2018-11-12T04:12:08.332Z,1003.33
2018-11-12T04:12:48.723Z,1003.3
2018-11-12T04:13:29.176Z,1003.23
2018-11-12T04:14:09.521Z,1003.15
2018-11-12T04:14:49.917Z,1003.11
2018-11-12T04:15:30.316Z,1003.09
2018-11-12T04:16:10.715Z,1003.08
2018-11-12T04:16:51.147Z,1003.02
2018-11-12T04:17:31.498Z,1003.07
2018-11-12T04:19:46.854Z,1003.15
2018-11-12T04:20:27.319Z,1003.12
2018-11-12T04:21:07.785Z,1003.18
2018-11-12T04:21:48.145Z,1003.16
2018-11-12T04:22:28.568Z,1003.2
2018-11-12T04:23:09.020Z,1003.24
2018-11-12T04:23:49.417Z,1003.22
2018-11-12T04:24:29.822Z,1003.18
2018-11-12T04:25:10.258Z,1003.16
2018-11-12T04:25:50.673Z,1003.09
2018-11-12T04:28:18.956Z,1003.09
2018-11-12T05:06:17.747Z,1002.96
2018-11-12T05:06:58.763Z,1003.06
2018-11-12T05:07:39.298Z,1003.09
2018-11-12T05:08:19.579Z,1003.14
2018-11-12T05:08:59.944Z,1003.15
2018-11-12T05:09:40.334Z,1003.24
2018-11-12T05:10:20.850Z,1003.21
2018-11-12T05:11:01.075Z,1003.17
2018-11-12T05:11:41.488Z,1003.2
2018-11-12T05:12:21.887Z,1003.17
2018-11-12T05:13:02.339Z,1003.12
2018-11-12T05:13:42.758Z,1003.12
2018-11-12T05:14:23.145Z,1003.05
2018-11-12T05:15:03.594Z,1003.04
2018-11-12T05:15:44.458Z,1003.05
2018-11-12T05:16:24.839Z,1003.04
2018-11-12T05:17:05.247Z,1003.02
2018-11-12T05:17:45.643Z,1003.09
2018-11-12T05:18:26.104Z,1003.03
2018-11-12T05:19:06.498Z,1003
2018-11-12T05:19:46.870Z,1002.99
2018-11-12T05:20:27.246Z,1002.99
2018-11-12T05:21:07.718Z,1002.97
2018-11-12T05:21:48.068Z,1002.95
2018-11-12T05:22:28.501Z,1002.92
2018-11-12T05:23:08.901Z,1002.96
2018-11-12T05:23:49.303Z,1002.92
2018-11-12T05:24:29.721Z,1002.91
2018-11-12T05:25:10.142Z,1002.92
2018-11-12T05:25:50.542Z,1002.91
2018-11-12T05:26:31.036Z,1002.86
2018-11-12T05:27:11.450Z,1002.9
2018-11-12T05:27:51.872Z,1002.87
2018-11-12T05:28:32.292Z,1002.87
2018-11-12T05:29:12.802Z,1002.85
2018-11-12T05:29:53.297Z,1002.87
2018-11-12T05:30:33.703Z,1002.86
2018-11-12T05:31:14.126Z,1002.83
2018-11-12T05:31:54.582Z,1002.84
2018-11-12T05:32:35.005Z,1002.77
2018-11-12T05:33:15.466Z,1002.71
2018-11-12T05:33:55.847Z,1002.75
2018-11-12T05:34:36.225Z,1002.77
2018-11-12T05:35:16.632Z,1002.79
2018-11-12T05:35:57.341Z,1002.8
2018-11-12T05:36:37.768Z,1002.84
2018-11-12T05:37:18.504Z,1002.83
2018-11-12T05:37:58.928Z,1002.86
2018-11-12T05:38:39.286Z,1002.86
2018-11-12T05:39:19.678Z,1002.83
2018-11-12T05:40:00.097Z,1002.84
2018-11-12T05:40:40.495Z,1002.81
2018-11-12T05:41:20.965Z,1002.83
2018-11-12T05:42:01.295Z,1002.82
2018-11-12T05:42:41.779Z,1002.8
2018-11-12T05:43:22.158Z,1002.83
2018-11-12T05:44:02.521Z,1002.81
2018-11-12T05:44:42.993Z,1002.86
2018-11-12T05:45:23.373Z,1002.85
2018-11-12T05:46:03.789Z,1002.85
2018-11-12T05:46:44.241Z,1002.89
2018-11-12T05:47:24.665Z,1002.86
2018-11-12T05:53:40.810Z,1002.81
2018-11-12T05:54:21.751Z,1002.8
2018-11-12T05:55:02.242Z,1002.8
2018-11-12T05:55:42.608Z,1002.78
2018-11-12T05:56:23.075Z,1002.76
2018-11-12T05:57:03.445Z,1002.74
2018-11-12T05:57:43.875Z,1002.73
2018-11-12T05:58:24.270Z,1002.77
2018-11-12T05:59:04.929Z,1002.76
2018-11-12T05:59:45.283Z,1002.76
2018-11-12T06:00:26.399Z,1002.76
2018-11-12T06:01:06.658Z,1002.77
2018-11-12T06:01:47.089Z,1002.74
2018-11-12T06:02:27.711Z,1002.75
2018-11-12T06:03:08.042Z,1002.73
2018-11-12T06:03:48.410Z,1002.72
2018-11-12T06:04:28.853Z,1002.72
2018-11-12T06:05:09.312Z,1002.74
2018-11-12T06:05:49.671Z,1002.69
2018-11-12T06:06:30.920Z,1002.75
2018-11-12T06:07:11.286Z,1002.8
2018-11-12T06:07:51.720Z,1002.76
2018-11-12T06:08:32.191Z,1002.76
2018-11-12T06:09:12.538Z,1002.78
2018-11-12T06:09:53.252Z,1002.79
2018-11-12T06:10:33.552Z,1002.8
2018-11-12T06:11:14.041Z,1002.84
2018-11-12T06:11:54.497Z,1002.77
2018-11-12T06:12:34.829Z,1002.74
2018-11-12T06:13:15.343Z,1002.72
2018-11-12T06:13:55.903Z,1002.79
2018-11-12T06:14:36.331Z,1002.75
2018-11-12T06:15:16.667Z,1002.73
2018-11-12T06:15:57.184Z,1002.75
2018-11-12T06:16:37.780Z,1002.79
2018-11-12T06:17:18.483Z,1002.79
2018-11-12T06:17:59.113Z,1002.8
2018-11-12T06:18:39.421Z,1002.89
2018-11-12T06:19:19.889Z,1002.89
2018-11-12T06:20:00.345Z,1002.91
2018-11-12T06:20:40.754Z,1002.9
2018-11-12T06:21:21.115Z,1002.84
2018-11-12T06:22:01.539Z,1002.78
2018-11-12T06:22:42.172Z,1002.73
2018-11-12T06:23:22.497Z,1002.77
2018-11-12T06:24:02.946Z,1002.68
2018-11-12T06:24:43.724Z,1002.67
2018-11-12T06:25:25.091Z,1002.71
2018-11-12T06:26:10.498Z,1002.68
2018-11-12T06:26:55.910Z,1002.69
2018-11-12T06:27:44.065Z,1002.78
2018-11-12T06:28:24.968Z,1002.82
2018-11-12T06:29:05.023Z,1002.87
2018-11-12T06:29:45.469Z,1002.87
2018-11-12T06:30:25.944Z,1002.88
2018-11-12T06:31:06.793Z,1002.85
2018-11-12T06:31:47.218Z,1002.81
2018-11-12T06:32:27.460Z,1002.81
2018-11-12T06:33:08.293Z,1002.81
2018-11-12T06:33:48.906Z,1002.79
2018-11-12T06:34:34.516Z,1002.72
2018-11-12T06:35:15.241Z,1002.67
2018-11-12T06:35:55.964Z,1002.64
2018-11-12T06:36:37.902Z,1002.61
2018-11-12T06:37:18.109Z,1002.63
2018-11-12T06:37:58.604Z,1002.6
2018-11-12T06:38:41.147Z,1002.61
2018-11-12T06:39:25.090Z,1002.61
2018-11-12T06:40:11.687Z,1002.59
2018-11-12T06:40:53.125Z,1002.61
2018-11-12T06:41:33.512Z,1002.63
2018-11-12T06:42:15.805Z,1002.57
2018-11-12T06:42:59.641Z,1002.57
2018-11-12T06:43:40.229Z,1002.59
2018-11-12T06:44:28.170Z,1002.61
2018-11-12T06:51:25.800Z,1002.65
2018-11-12T06:52:18.473Z,1002.58
2018-11-12T06:53:12.955Z,1002.58
2018-11-12T06:54:08.045Z,1002.58
2018-11-12T06:55:04.216Z,1002.6
2018-11-12T06:55:59.900Z,1002.6
2018-11-12T06:56:54.423Z,1002.66
2018-11-12T06:57:48.569Z,1002.69
2018-11-12T06:58:42.093Z,1002.71
2018-11-12T06:59:36.094Z,1002.78
2018-11-12T07:00:30.363Z,1002.72
2018-11-12T07:03:22.610Z,1002.59
2018-11-12T07:05:27.413Z,1002.61
2018-11-12T07:06:29.310Z,1002.58
2018-11-12T07:07:38.103Z,1002.52
2018-11-12T07:08:36.244Z,1002.51
2018-11-12T07:09:34.765Z,1002.53
2018-11-12T07:10:38.953Z,1002.54
2018-11-12T07:11:38.816Z,1002.52
2018-11-12T07:12:42.740Z,1002.51
2018-11-12T07:14:00.698Z,1002.45
2018-11-12T07:15:19.300Z,1002.43
2018-11-12T07:16:32.756Z,1002.36
2018-11-12T07:17:33.932Z,1002.35
2018-11-12T07:18:32.364Z,1002.35
2018-11-12T07:19:36.067Z,1002.35
2018-11-12T07:20:32.883Z,1002.34
2018-11-12T07:21:29.157Z,1002.3
2018-11-12T07:22:30.541Z,1002.28
2018-11-12T07:23:25.767Z,1002.22
2018-11-12T07:24:23.421Z,1002.21
2018-11-12T07:25:30.598Z,1002.25
2018-11-12T07:26:35.338Z,1002.19
2018-11-12T07:27:56.154Z,1002.25
2018-11-12T07:29:12.173Z,1002.28
2018-11-12T07:30:21.420Z,1002.35
2018-11-12T07:35:01.260Z,1002.33
2018-11-12T07:35:54.610Z,1002.38
2018-11-12T07:36:48.852Z,1002.4
2018-11-12T07:37:42.293Z,1002.46
2018-11-12T07:38:38.146Z,1002.46
2018-11-12T07:39:36.760Z,1002.48
2018-11-12T07:40:44.367Z,1002.41
2018-11-12T07:41:42.440Z,1002.44
2018-11-12T07:42:43.927Z,1002.5
2018-11-12T07:43:42.811Z,1002.53
2018-11-12T07:44:40.122Z,1002.51
2018-11-12T07:45:46.535Z,1002.53
2018-11-12T07:48:09.537Z,1002.39
2018-11-12T07:50:14.294Z,1002.44
2018-11-12T07:50:55.135Z,1002.45
2018-11-12T07:51:36.391Z,1002.49
2018-11-12T07:52:17.778Z,1002.52
2018-11-12T07:52:58.446Z,1002.49
2018-11-12T07:53:38.364Z,1002.48
2018-11-12T07:54:18.958Z,1002.43
2018-11-12T07:55:00.151Z,1002.37
2018-11-12T07:55:40.340Z,1002.31
2018-11-12T07:56:20.832Z,1002.36
2018-11-12T07:57:01.399Z,1002.37
2018-11-12T07:57:42.245Z,1002.34
2018-11-12T07:58:22.544Z,1002.36
2018-11-12T07:59:02.948Z,1002.36
2018-11-12T07:59:43.501Z,1002.35
2018-11-12T08:00:23.882Z,1002.38
2018-11-12T08:01:04.467Z,1002.38
2018-11-12T08:01:45.528Z,1002.35
2018-11-12T08:02:26.275Z,1002.26
2018-11-12T08:03:06.664Z,1002.29
2018-11-12T08:03:48.389Z,1002.29
2018-11-12T08:04:29.053Z,1002.29
2018-11-12T08:05:09.804Z,1002.28
2018-11-12T08:05:50.332Z,1002.24
2018-11-12T08:06:30.900Z,1002.24
2018-11-12T08:07:11.318Z,1002.23
2018-11-12T08:07:53.338Z,1002.16
2018-11-12T08:08:33.771Z,1002.19
2018-11-12T08:09:15.962Z,1002.13
2018-11-12T08:09:55.994Z,1002.1
2018-11-12T08:10:37.085Z,1002.09
2018-11-12T08:11:17.279Z,1002.1
2018-11-12T08:11:58.102Z,1002.05
2018-11-12T08:12:38.682Z,1002.04
2018-11-12T08:13:19.481Z,1002.01
2018-11-12T08:14:00.261Z,1002.04
2018-11-12T08:14:41.289Z,1002.06
2018-11-12T08:15:21.635Z,1002.06
2018-11-12T08:16:02.053Z,1001.94
2018-11-12T08:16:42.506Z,1001.91
2018-11-12T08:17:23.186Z,1001.92
2018-11-12T08:18:04.532Z,1001.89
2018-11-12T08:18:45.133Z,1001.91
2018-11-12T08:19:25.971Z,1001.88
2018-11-12T08:20:06.434Z,1001.85
2018-11-12T08:20:47.212Z,1001.79
2018-11-12T08:21:27.666Z,1001.74
2018-11-12T08:22:08.375Z,1001.7
2018-11-12T08:22:49.829Z,1001.71
2018-11-12T08:23:30.050Z,1001.83
2018-11-12T08:24:10.570Z,1001.86
2018-11-12T08:24:51.215Z,1001.94
2018-11-12T08:25:31.610Z,1001.89
2018-11-12T08:26:12.357Z,1001.91
2018-11-12T08:26:55.898Z,1002
2018-11-12T08:27:38.360Z,1002
2018-11-12T08:28:18.770Z,1001.98
2018-11-12T08:28:59.434Z,1001.95
2018-11-12T08:29:40.855Z,1001.97
2018-11-12T08:30:21.291Z,1001.99
2018-11-12T08:31:01.725Z,1002
2018-11-12T08:31:49.098Z,1001.98
2018-11-12T08:33:20.352Z,1001.97
2018-11-12T08:34:01.228Z,1002
2018-11-12T08:34:42.162Z,1001.96
2018-11-12T08:35:23.008Z,1001.99
2018-11-12T08:36:03.179Z,1002.02
2018-11-12T08:36:43.678Z,1002.05
2018-11-12T08:37:24.071Z,1002
2018-11-12T08:38:04.713Z,1002.09
2018-11-12T08:38:45.382Z,1002.08
2018-11-12T08:39:26.056Z,1002.03
2018-11-12T08:40:06.576Z,1002.07
2018-11-12T08:40:47.305Z,1002.04
2018-11-12T08:41:28.002Z,1002.04
2018-11-12T08:42:09.921Z,1002.04
2018-11-12T08:42:49.776Z,1002
2018-11-12T08:43:30.199Z,1002.02
2018-11-12T08:44:10.705Z,1001.99
2018-11-12T08:44:51.255Z,1002.02
2018-11-12T08:45:32.310Z,1002.06
2018-11-12T08:46:13.308Z,1002.07
2018-11-12T08:46:53.563Z,1002.06
2018-11-12T08:47:34.258Z,1002.1
2018-11-12T08:48:15.086Z,1002.05
2018-11-12T08:48:55.454Z,1002.06
2018-11-12T08:49:36.075Z,1002.11
2018-11-12T08:50:16.364Z,1002.06
2018-11-12T08:50:57.788Z,1002.17
2018-11-12T08:51:37.657Z,1002.06
2018-11-12T08:52:17.931Z,1002.04
2018-11-12T08:52:58.353Z,1002.07
2018-11-12T08:53:39.794Z,1002.09
2018-11-12T08:54:20.354Z,1002.08
2018-11-12T08:55:00.739Z,1002.06
2018-11-12T08:55:42.415Z,1002.12
2018-11-12T08:56:22.952Z,1002.09
2018-11-12T08:57:03.230Z,1002.1
2018-11-12T08:57:43.793Z,1002.11
2018-11-12T08:58:24.180Z,1002.21
2018-11-12T08:59:04.697Z,1002.19
2018-11-12T08:59:45.314Z,1002.13
2018-11-12T09:00:25.698Z,1002.13
2018-11-12T09:01:06.246Z,1002.14
2018-11-12T09:01:46.640Z,1002.12
2018-11-12T09:02:27.058Z,1002.17
2018-11-12T09:03:07.585Z,1002.18
2018-11-12T09:03:48.110Z,1002.19
2018-11-12T09:04:28.340Z,1002.19
2018-11-12T09:05:08.849Z,1002.21
2018-11-12T09:05:49.549Z,1002.22
2018-11-12T09:06:29.699Z,1002.22
2018-11-12T09:07:10.589Z,1002.18
2018-11-12T09:07:50.802Z,1002.23
2018-11-12T09:08:31.237Z,1002.23
2018-11-12T09:09:11.821Z,1002.23
2018-11-12T09:09:52.204Z,1002.26
2018-11-12T09:10:32.724Z,1002.24
2018-11-12T09:11:13.108Z,1002.25
2018-11-12T09:11:53.577Z,1002.27
2018-11-12T09:12:34.834Z,1002.26
2018-11-12T09:13:14.690Z,1002.28
2018-11-12T09:13:55.163Z,1002.31
2018-11-12T09:14:35.580Z,1002.33
2018-11-12T09:15:16.276Z,1002.28
2018-11-12T09:15:56.760Z,1002.23
2018-11-12T09:16:37.247Z,1002.28
2018-11-12T09:17:17.653Z,1002.3
2018-11-12T09:17:58.435Z,1002.28
2018-11-12T09:18:38.745Z,1002.3
2018-11-12T09:19:19.256Z,1002.28
2018-11-12T09:19:59.853Z,1002.26
2018-11-12T09:20:40.212Z,1002.24
2018-11-12T09:21:20.634Z,1002.26
2018-11-12T09:22:01.112Z,1002.26
2018-11-12T09:22:41.770Z,1002.26
2018-11-12T09:23:22.431Z,1002.16
2018-11-12T09:24:02.741Z,1002.19
2018-11-12T09:24:43.172Z,1002.15
2018-11-12T09:25:23.624Z,1002.12
2018-11-12T09:26:04.115Z,1002.09
2018-11-12T09:26:44.556Z,1002.1
2018-11-12T09:27:24.997Z,1002.06
2018-11-12T09:28:05.432Z,1002.05
2018-11-12T09:28:45.866Z,1002.09
2018-11-12T09:29:26.347Z,1002.06
2018-11-12T09:30:06.730Z,1002.06
2018-11-12T09:30:48.289Z,1002.11
2018-11-12T09:31:27.974Z,1002.05
2018-11-12T09:32:08.051Z,1002.08
2018-11-12T09:32:48.654Z,1002.05
2018-11-12T09:33:28.952Z,1002.12
2018-11-12T09:34:09.318Z,1002.12
2018-11-12T09:34:49.870Z,1002.15
2018-11-12T09:35:30.197Z,1002.18
2018-11-12T09:36:10.659Z,1002.22
2018-11-12T09:36:51.153Z,1002.22
2018-11-12T09:37:31.595Z,1002.22
2018-11-12T09:38:12.067Z,1002.22
2018-11-12T09:38:52.600Z,1002.25
2018-11-12T09:39:32.831Z,1002.24
2018-11-12T09:40:13.268Z,1002.25
2018-11-12T09:40:53.679Z,1002.29
2018-11-12T09:41:34.165Z,1002.27
2018-11-12T09:42:14.535Z,1002.23
2018-11-12T09:42:54.956Z,1002.21
2018-11-12T09:43:35.326Z,1002.24
2018-11-12T09:44:15.864Z,1002.28
2018-11-12T09:44:56.239Z,1002.35
2018-11-12T09:45:36.698Z,1002.35
2018-11-12T09:46:17.115Z,1002.33
2018-11-12T09:46:58.304Z,1002.33
2018-11-12T09:47:38.283Z,1002.3
2018-11-12T09:48:18.860Z,1002.3
2018-11-12T09:48:59.511Z,1002.31
2018-11-12T09:49:40.093Z,1002.35
2018-11-12T09:50:20.545Z,1002.3
2018-11-12T09:51:01.280Z,1002.29
2018-11-12T09:51:41.752Z,1002.24
2018-11-12T09:52:22.225Z,1002.26
2018-11-12T09:53:02.644Z,1002.28
2018-11-12T09:53:43.884Z,1002.3
2018-11-12T09:54:23.905Z,1002.28
2018-11-12T09:55:04.401Z,1002.28
2018-11-12T09:55:45.466Z,1002.25
2018-11-12T09:56:25.893Z,1002.26
2018-11-12T09:57:06.578Z,1002.24
2018-11-12T09:57:46.971Z,1002.25
2018-11-12T09:58:27.493Z,1002.23
2018-11-12T09:59:07.867Z,1002.23
2018-11-12T09:59:48.300Z,1002.23
2018-11-12T10:00:28.941Z,1002.22
2018-11-12T10:01:09.461Z,1002.16
2018-11-12T10:01:50.363Z,1002.22
2018-11-12T10:02:30.792Z,1002.26